Time;durP1;ratioP1;P1;durP2;ratioP2;P2;SDS_P1;SDS_P2;PMS_P1;PMS_P2;Temp;Humidity;BMP_temperature;BMP_pressure;BME280_temperature;BME280_humidity;BME280_pressure;Samples;Min_cycle;Max_cycle;Signal;HPM_P1;HPM_P2
2023/04/08 00:00:53;;;;;;;20.98;12.30;;;;;;;;;;5061722;28;20060;-66
2023/04/08 00:03:19;;;;;;;20.35;13.10;;;;;;;;;;5067045;28;20036;-66
2023/04/08 00:05:44;;;;;;;29.25;12.70;;;;;;;;;;5060603;28;20044;-66
2023/04/08 00:08:10;;;;;;;20.08;11.88;;;;;;;;;;5072761;28;20395;-66
2023/04/08 00:10:35;;;;;;;18.60;12.38;;;;;;;;;;5059479;28;20033;-66
2023/04/08 00:13:00;;;;;;;30.08;14.27;;;;;;;;;;5060635;28;20028;-66
2023/04/08 00:15:26;;;;;;;18.60;12.60;;;;;;;;;;5060171;28;20052;-66
2023/04/08 00:17:53;;;;;;;22.23;13.52;;;;;;;;;;5061302;28;20031;-66
2023/04/08 00:20:18;;;;;;;20.70;12.82;;;;;;;;;;5075803;28;20085;-66
2023/04/08 00:22:44;;;;;;;17.60;13.55;;;;;;;;;;5078300;28;20486;-66
2023/04/08 00:25:10;;;;;;;27.20;13.48;;;;;;;;;;5070175;28;20032;-66
2023/04/08 00:27:35;;;;;;;24.23;13.52;;;;;;;;;;5066703;28;20896;-66
2023/04/08 00:30:02;;;;;;;18.73;12.88;;;;;;;;;;5065017;28;20063;-66
2023/04/08 00:32:28;;;;;;;22.88;13.65;;;;;;;;;;5067879;28;20028;-66
2023/04/08 00:34:53;;;;;;;27.08;13.88;;;;;;;;;;5061295;28;20046;-66
2023/04/08 00:37:18;;;;;;;23.52;13.38;;;;;;;;;;5061471;28;20036;-66
2023/04/08 00:39:43;;;;;;;26.48;12.98;;;;;;;;;;5070638;28;20036;-66
2023/04/08 00:42:09;;;;;;;19.98;12.95;;;;;;;;;;5076299;28;20024;-66
2023/04/08 00:44:34;;;;;;;18.23;12.77;;;;;;;;;;5075717;28;20021;-66
2023/04/08 00:46:59;;;;;;;20.40;13.68;;;;;;;;;;5071058;28;20033;-66
2023/04/08 00:49:25;;;;;;;19.52;12.68;;;;;;;;;;5082928;28;20501;-66
2023/04/08 00:51:50;;;;;;;25.88;12.80;;;;;;;;;;5070629;28;20525;-66
2023/04/08 00:54:16;;;;;;;22.88;13.68;;;;;;;;;;5052760;28;20098;-66
2023/04/08 00:56:42;;;;;;;24.35;13.90;;;;;;;;;;5065757;28;20491;-66
2023/04/08 00:59:07;;;;;;;20.75;12.20;;;;;;;;;;5071624;28;20466;-66
2023/04/08 01:01:35;;;;;;;22.90;12.98;;;;;;;;;;5063465;28;20116;-66
2023/04/08 01:04:04;;;;;;;19.27;12.70;;;;;;;;;;5069709;28;20020;-66
2023/04/08 01:06:33;;;;;;;21.30;12.35;;;;;;;;;;5060717;28;20032;-66
2023/04/08 01:08:59;;;;;;;21.98;12.55;;;;;;;;;;5069531;28;20383;-66
2023/04/08 01:11:26;;;;;;;26.73;13.75;;;;;;;;;;5067156;28;20143;-66
2023/04/08 01:13:54;;;;;;;20.67;13.60;;;;;;;;;;5072520;28;20036;-66
2023/04/08 01:16:20;;;;;;;28.58;13.48;;;;;;;;;;5073963;28;20398;-66
2023/04/08 01:18:47;;;;;;;24.38;13.38;;;;;;;;;;5076190;28;20021;-66
2023/04/08 01:21:13;;;;;;;23.17;12.50;;;;;;;;;;5070755;28;20115;-66
2023/04/08 01:23:45;;;;;;;20.50;12.32;;;;;;;;;;5069837;28;20016;-66
2023/04/08 01:26:21;;;;;;;20.60;12.57;;;;;;;;;;5057411;28;20112;-66
2023/04/08 01:28:48;;;;;;;19.02;12.77;;;;;;;;;;5049803;28;20017;-66
2023/04/08 01:31:13;;;;;;;19.02;12.77;;;;;;;;;;5079343;28;20115;-66
2023/04/08 01:33:39;;;;;;;22.73;13.20;;;;;;;;;;5068801;28;20488;-66
2023/04/08 01:36:04;;;;;;;26.20;13.10;;;;;;;;;;5079166;28;20043;-66
2023/04/08 01:38:30;;;;;;;20.83;12.27;;;;;;;;;;5063893;28;20054;-66
2023/04/08 01:40:56;;;;;;;19.98;13.82;;;;;;;;;;5081192;28;20536;-66
2023/04/08 01:43:21;;;;;;;20.73;14.07;;;;;;;;;;5078910;28;20102;-66
2023/04/08 01:45:47;;;;;;;25.95;13.75;;;;;;;;;;5082526;28;20082;-66
2023/04/08 01:48:13;;;;;;;19.45;13.05;;;;;;;;;;5072527;28;20035;-67
2023/04/08 01:50:39;;;;;;;21.65;13.65;;;;;;;;;;5074040;28;20085;-66
2023/04/08 01:53:04;;;;;;;22.50;13.82;;;;;;;;;;5082964;28;20087;-66
2023/04/08 01:55:30;;;;;;;20.20;13.30;;;;;;;;;;5088812;28;20127;-66
2023/04/08 01:57:58;;;;;;;25.52;14.02;;;;;;;;;;5085844;28;20020;-66
2023/04/08 02:00:25;;;;;;;24.10;14.95;;;;;;;;;;5068861;28;20430;-66
2023/04/08 02:02:51;;;;;;;25.98;14.20;;;;;;;;;;5067185;28;20031;-66
2023/04/08 02:05:16;;;;;;;27.73;13.98;;;;;;;;;;5072895;28;20032;-66
2023/04/08 02:07:42;;;;;;;25.63;13.85;;;;;;;;;;5063346;28;20058;-66
2023/04/08 02:10:07;;;;;;;26.00;13.02;;;;;;;;;;5066139;28;20029;-66
2023/04/08 02:12:32;;;;;;;21.48;14.13;;;;;;;;;;5064448;28;20033;-67
2023/04/08 02:14:58;;;;;;;20.48;14.10;;;;;;;;;;5065446;28;20028;-66
2023/04/08 02:17:32;;;;;;;26.23;13.05;;;;;;;;;;5063436;28;20036;-66
2023/04/08 02:19:57;;;;;;;;;;;;;;;;;;5067370;28;20036;-66
2023/04/08 02:22:30;;;;;;;18.60;13.25;;;;;;;;;;5063556;28;19978;-66
2023/04/08 02:24:57;;;;;;;22.50;13.48;;;;;;;;;;5063637;28;20036;-66
2023/04/08 02:27:23;;;;;;;19.73;13.82;;;;;;;;;;5073193;28;20112;-66
2023/04/08 02:29:49;;;;;;;25.48;15.70;;;;;;;;;;5073325;28;20111;-66
2023/04/08 02:32:15;;;;;;;24.63;14.32;;;;;;;;;;5073657;28;20036;-65
2023/04/08 02:34:40;;;;;;;24.02;15.32;;;;;;;;;;5069519;28;20356;-65
2023/04/08 02:37:07;;;;;;;24.80;14.70;;;;;;;;;;5055648;28;20032;-65
2023/04/08 02:39:32;;;;;;;28.40;13.30;;;;;;;;;;5070805;28;20089;-65
2023/04/08 02:41:57;;;;;;;27.15;14.13;;;;;;;;;;5065569;28;20036;-66
2023/04/08 02:44:23;;;;;;;31.63;15.63;;;;;;;;;;5055431;28;20033;-65
2023/04/08 02:46:48;;;;;;;27.00;15.23;;;;;;;;;;5074415;28;20134;-66
2023/04/08 02:49:14;;;;;;;28.20;15.70;;;;;;;;;;5062132;28;20055;-65
2023/04/08 02:51:39;;;;;;;22.67;14.05;;;;;;;;;;5059499;28;20021;-65
2023/04/08 02:54:04;;;;;;;17.13;13.30;;;;;;;;;;5074126;28;20054;-65
2023/04/08 02:56:29;;;;;;;27.55;15.15;;;;;;;;;;5076618;28;20017;-65
2023/04/08 02:58:55;;;;;;;33.90;15.20;;;;;;;;;;5072350;28;20029;-65
2023/04/08 03:01:20;;;;;;;30.33;14.48;;;;;;;;;;5072959;28;20428;-66
2023/04/08 03:03:46;;;;;;;23.58;13.88;;;;;;;;;;5058547;28;20028;-65
2023/04/08 03:06:11;;;;;;;28.27;15.48;;;;;;;;;;5065066;28;20514;-65
2023/04/08 03:08:36;;;;;;;27.73;14.82;;;;;;;;;;5064678;28;20059;-65
2023/04/08 03:11:01;;;;;;;23.58;15.43;;;;;;;;;;5063304;28;20089;-65
2023/04/08 03:13:28;;;;;;;22.77;15.57;;;;;;;;;;5071428;28;20568;-65
2023/04/08 03:15:53;;;;;;;25.20;15.23;;;;;;;;;;5073683;28;20051;-67
2023/04/08 03:18:19;;;;;;;36.85;15.18;;;;;;;;;;5066766;28;20471;-67
2023/04/08 03:20:44;;;;;;;20.05;13.95;;;;;;;;;;5065936;28;20032;-67
2023/04/08 03:23:10;;;;;;;32.25;16.58;;;;;;;;;;5073278;28;20425;-66
2023/04/08 03:25:35;;;;;;;30.20;14.88;;;;;;;;;;5072698;28;20131;-66
2023/04/08 03:28:00;;;;;;;29.52;15.57;;;;;;;;;;5071424;28;20021;-66
2023/04/08 03:30:25;;;;;;;23.40;15.85;;;;;;;;;;5069275;28;20085;-66
2023/04/08 03:32:51;;;;;;;22.05;15.45;;;;;;;;;;5068367;28;20050;-66
2023/04/08 03:35:16;;;;;;;32.50;15.57;;;;;;;;;;5068745;28;20028;-66
2023/04/08 03:37:41;;;;;;;30.75;17.02;;;;;;;;;;5058812;28;20050;-66
2023/04/08 03:40:07;;;;;;;38.30;16.30;;;;;;;;;;5065132;28;20446;-66
2023/04/08 03:42:34;;;;;;;28.42;16.33;;;;;;;;;;5063846;28;20062;-66
2023/04/08 03:44:59;;;;;;;27.15;16.58;;;;;;;;;;5077420;28;20398;-66
2023/04/08 03:47:24;;;;;;;28.45;17.33;;;;;;;;;;5068379;28;20028;-66
2023/04/08 03:49:51;;;;;;;26.98;16.10;;;;;;;;;;5064203;28;20020;-66
2023/04/08 03:52:17;;;;;;;23.13;15.10;;;;;;;;;;5067445;28;20020;-66
2023/04/08 03:54:42;;;;;;;27.75;16.27;;;;;;;;;;5067496;28;20032;-66
2023/04/08 03:57:07;;;;;;;23.88;15.98;;;;;;;;;;5059640;28;20028;-66
2023/04/08 03:59:32;;;;;;;25.63;16.17;;;;;;;;;;5068296;28;20038;-66
2023/04/08 04:01:58;;;;;;;29.67;17.25;;;;;;;;;;5061473;28;20435;-66
2023/04/08 04:04:23;;;;;;;39.67;17.13;;;;;;;;;;5076856;28;20491;-65
2023/04/08 04:06:48;;;;;;;30.00;16.70;;;;;;;;;;5065705;28;20020;-66
2023/04/08 04:09:15;;;;;;;32.13;18.55;;;;;;;;;;5076363;28;20075;-66
2023/04/08 04:11:40;;;;;;;32.90;18.88;;;;;;;;;;5075431;28;20051;-66
2023/04/08 04:14:06;;;;;;;39.35;19.15;;;;;;;;;;5072116;28;20024;-66
2023/04/08 04:16:31;;;;;;;36.53;19.13;;;;;;;;;;5065648;28;20069;-66
2023/04/08 04:18:56;;;;;;;27.67;18.20;;;;;;;;;;5060676;28;20067;-66
2023/04/08 04:21:21;;;;;;;37.05;19.10;;;;;;;;;;5062031;28;20024;-66
2023/04/08 04:23:47;;;;;;;31.35;18.00;;;;;;;;;;5060928;28;20031;-66
2023/04/08 04:26:12;;;;;;;24.40;17.45;;;;;;;;;;5061035;28;20040;-66
2023/04/08 04:28:37;;;;;;;31.08;18.27;;;;;;;;;;5064915;28;20020;-66
2023/04/08 04:31:03;;;;;;;31.02;18.80;;;;;;;;;;5053018;28;20087;-67
2023/04/08 04:33:28;;;;;;;23.08;16.52;;;;;;;;;;5064842;28;20035;-66
2023/04/08 04:35:53;;;;;;;32.10;19.27;;;;;;;;;;5060653;28;20979;-66
2023/04/08 04:38:19;;;;;;;45.25;20.80;;;;;;;;;;5060032;28;20059;-66
2023/04/08 04:40:44;;;;;;;28.40;18.00;;;;;;;;;;5049167;28;20031;-66
2023/04/08 04:43:10;;;;;;;28.23;18.77;;;;;;;;;;5059919;28;20028;-66
2023/04/08 04:45:35;;;;;;;34.78;19.67;;;;;;;;;;5053838;28;20056;-66
2023/04/08 04:48:02;;;;;;;32.08;19.40;;;;;;;;;;5048776;28;20836;-66
2023/04/08 04:50:27;;;;;;;26.00;18.45;;;;;;;;;;5064052;28;20481;-66
2023/04/08 04:52:52;;;;;;;30.30;18.98;;;;;;;;;;5058499;28;20020;-66
2023/04/08 04:55:18;;;;;;;37.72;19.45;;;;;;;;;;5066185;28;20074;-67
2023/04/08 04:57:43;;;;;;;30.27;20.98;;;;;;;;;;5054187;28;20061;-66
2023/04/08 05:00:09;;;;;;;30.63;20.20;;;;;;;;;;5061668;28;20039;-66
2023/04/08 05:02:34;;;;;;;34.40;20.90;;;;;;;;;;5070522;28;20036;-66
2023/04/08 05:05:00;;;;;;;36.70;22.17;;;;;;;;;;5069626;28;20394;-66
2023/04/08 05:07:25;;;;;;;35.58;21.95;;;;;;;;;;5071061;28;20036;-66
2023/04/08 05:09:50;;;;;;;38.72;22.30;;;;;;;;;;5070711;28;20039;-66
2023/04/08 05:12:15;;;;;;;43.58;23.67;;;;;;;;;;5046737;28;20394;-65
2023/04/08 05:14:41;;;;;;;34.78;22.42;;;;;;;;;;5042443;28;20027;-65
2023/04/08 05:17:06;;;;;;;36.58;22.70;;;;;;;;;;5053232;28;20024;-65
2023/04/08 05:19:31;;;;;;;37.70;23.27;;;;;;;;;;5055251;28;20473;-66
2023/04/08 05:21:57;;;;;;;33.72;23.33;;;;;;;;;;5074864;28;20034;-65
2023/04/08 05:24:22;;;;;;;35.45;24.40;;;;;;;;;;5082442;28;20448;-65
2023/04/08 05:26:51;;;;;;;38.33;26.65;;;;;;;;;;5073936;28;20021;-66
2023/04/08 05:29:17;;;;;;;37.55;25.58;;;;;;;;;;5073548;28;20112;-67
2023/04/08 05:31:42;;;;;;;35.90;25.08;;;;;;;;;;5056136;28;20043;-64
2023/04/08 05:34:07;;;;;;;43.25;24.67;;;;;;;;;;5062049;28;20024;-65
2023/04/08 05:36:33;;;;;;;35.92;23.52;;;;;;;;;;5071624;28;20037;-64
2023/04/08 05:38:58;;;;;;;37.38;23.15;;;;;;;;;;5073447;28;20035;-64
2023/04/08 05:41:23;;;;;;;36.90;22.00;;;;;;;;;;5047711;28;20089;-65
2023/04/08 05:43:48;;;;;;;35.55;22.45;;;;;;;;;;5034382;28;20044;-65
2023/04/08 05:46:14;;;;;;;43.08;24.17;;;;;;;;;;5039772;28;20127;-65
2023/04/08 05:48:39;;;;;;;29.95;23.27;;;;;;;;;;5040960;28;21090;-65
2023/04/08 05:51:04;;;;;;;33.95;23.70;;;;;;;;;;5050615;28;20024;-65
2023/04/08 05:53:30;;;;;;;39.30;24.67;;;;;;;;;;5049284;28;20103;-65
2023/04/08 05:55:55;;;;;;;42.75;28.15;;;;;;;;;;5060959;28;20032;-66
2023/04/08 05:58:20;;;;;;;42.97;28.23;;;;;;;;;;5047947;28;20818;-65
2023/04/08 06:00:46;;;;;;;40.75;26.95;;;;;;;;;;5052126;28;20028;-65
2023/04/08 06:03:11;;;;;;;55.75;28.65;;;;;;;;;;5061136;28;20119;-65
2023/04/08 06:05:36;;;;;;;51.85;29.65;;;;;;;;;;5065351;28;20024;-65
2023/04/08 06:08:01;;;;;;;46.78;28.98;;;;;;;;;;5046747;28;20028;-65
2023/04/08 06:10:27;;;;;;;54.13;30.13;;;;;;;;;;5041244;28;20857;-64
2023/04/08 06:12:52;;;;;;;48.75;27.10;;;;;;;;;;5033516;28;20743;-64
2023/04/08 06:15:17;;;;;;;42.13;28.73;;;;;;;;;;5034869;28;20032;-67
2023/04/08 06:17:43;;;;;;;36.70;26.45;;;;;;;;;;5044977;28;20024;-67
2023/04/08 06:20:08;;;;;;;41.08;27.30;;;;;;;;;;5036784;28;20025;-66
2023/04/08 06:22:35;;;;;;;43.88;26.20;;;;;;;;;;5047154;28;20032;-66
2023/04/08 06:25:00;;;;;;;43.08;28.88;;;;;;;;;;5042219;28;20882;-64
2023/04/08 06:27:26;;;;;;;39.55;26.77;;;;;;;;;;5035482;28;20021;-64
2023/04/08 06:29:52;;;;;;;34.60;26.63;;;;;;;;;;5045692;28;20031;-64
2023/04/08 06:32:17;;;;;;;40.13;28.55;;;;;;;;;;5032172;28;20139;-64
2023/04/08 06:34:44;;;;;;;41.42;27.92;;;;;;;;;;5043729;28;20027;-64
2023/04/08 06:37:09;;;;;;;41.60;29.50;;;;;;;;;;5038474;28;20031;-65
2023/04/08 06:39:34;;;;;;;42.90;26.95;;;;;;;;;;5048308;28;20024;-64
2023/04/08 06:42:00;;;;;;;37.85;27.15;;;;;;;;;;5058732;28;20949;-63
2023/04/08 06:44:25;;;;;;;42.72;28.02;;;;;;;;;;5047586;28;20371;-64
2023/04/08 06:46:50;;;;;;;40.13;26.80;;;;;;;;;;5051097;28;20032;-63
2023/04/08 06:49:16;;;;;;;37.88;27.65;;;;;;;;;;5036970;28;20862;-65
2023/04/08 06:51:41;;;;;;;42.60;27.17;;;;;;;;;;5048187;28;20047;-65
2023/04/08 06:54:08;;;;;;;37.53;27.73;;;;;;;;;;5053429;28;20055;-63
2023/04/08 06:56:34;;;;;;;50.42;27.42;;;;;;;;;;5045067;28;20032;-66
2023/04/08 06:58:59;;;;;;;39.67;28.25;;;;;;;;;;5038089;28;20032;-65
2023/04/08 07:01:25;;;;;;;39.72;28.23;;;;;;;;;;5050465;28;20102;-65
2023/04/08 07:03:50;;;;;;;42.25;28.88;;;;;;;;;;5038765;28;20013;-65
2023/04/08 07:06:15;;;;;;;44.17;28.63;;;;;;;;;;5049178;28;20032;-65
2023/04/08 07:08:41;;;;;;;41.95;27.50;;;;;;;;;;5070435;28;20024;-66
2023/04/08 07:11:06;;;;;;;38.75;26.35;;;;;;;;;;5055887;28;20140;-66
2023/04/08 07:13:31;;;;;;;43.72;28.25;;;;;;;;;;5057078;28;20091;-66
2023/04/08 07:15:57;;;;;;;38.97;27.60;;;;;;;;;;5051597;28;20029;-66
2023/04/08 07:18:22;;;;;;;45.72;29.00;;;;;;;;;;5048094;28;20688;-66
2023/04/08 07:20:52;;;;;;;43.47;27.67;;;;;;;;;;5046444;28;20596;-66
2023/04/08 07:23:18;;;;;;;41.00;26.50;;;;;;;;;;5060255;28;20024;-66
2023/04/08 07:25:43;;;;;;;40.33;26.10;;;;;;;;;;5072228;28;20031;-66
2023/04/08 07:28:08;;;;;;;36.88;25.35;;;;;;;;;;5067086;28;20869;-66
2023/04/08 07:30:33;;;;;;;33.90;24.55;;;;;;;;;;5078613;28;20109;-66
2023/04/08 07:32:59;;;;;;;39.72;26.60;;;;;;;;;;5069350;28;20026;-66
2023/04/08 07:35:24;;;;;;;34.33;24.73;;;;;;;;;;5071333;28;20038;-66
2023/04/08 07:37:50;;;;;;;41.00;26.27;;;;;;;;;;5060053;28;20098;-66
2023/04/08 07:40:16;;;;;;;41.55;27.77;;;;;;;;;;5071691;28;20040;-66
2023/04/08 07:42:41;;;;;;;40.35;28.38;;;;;;;;;;5076395;28;20116;-66
2023/04/08 07:45:07;;;;;;;38.58;25.38;;;;;;;;;;5060843;28;20056;-66
2023/04/08 07:47:32;;;;;;;45.25;27.60;;;;;;;;;;5058942;28;20700;-66
2023/04/08 07:49:57;;;;;;;51.47;26.08;;;;;;;;;;5057677;28;20031;-66
2023/04/08 07:52:23;;;;;;;37.85;26.35;;;;;;;;;;5058473;28;20055;-66
2023/04/08 07:54:48;;;;;;;34.00;18.75;;;;;;;;;;5049428;28;20028;-66
2023/04/08 07:57:13;;;;;;;22.65;17.90;;;;;;;;;;5076732;28;20558;-66
2023/04/08 07:59:38;;;;;;;28.33;18.50;;;;;;;;;;5061950;28;20024;-66
2023/04/08 08:02:03;;;;;;;22.80;18.23;;;;;;;;;;5074989;28;20039;-65
2023/04/08 08:04:29;;;;;;;25.90;19.77;;;;;;;;;;5062354;28;20012;-66
2023/04/08 08:06:54;;;;;;;23.65;19.05;;;;;;;;;;5076294;28;20031;-65
2023/04/08 08:09:19;;;;;;;36.17;19.98;;;;;;;;;;5071450;28;20028;-66
2023/04/08 08:11:45;;;;;;;21.98;17.23;;;;;;;;;;5064977;28;20029;-66
2023/04/08 08:14:12;;;;;;;22.02;16.60;;;;;;;;;;5070415;28;20028;-65
2023/04/08 08:16:38;;;;;;;19.98;15.80;;;;;;;;;;5061645;28;20025;-66
2023/04/08 08:19:06;;;;;;;20.98;15.25;;;;;;;;;;5052682;28;20605;-66
2023/04/08 08:21:31;;;;;;;25.95;14.95;;;;;;;;;;5061837;28;20487;-66
2023/04/08 08:23:58;;;;;;;20.65;15.95;;;;;;;;;;5062553;28;20024;-66
2023/04/08 08:26:23;;;;;;;25.52;17.00;;;;;;;;;;5066742;28;20016;-66
2023/04/08 08:28:49;;;;;;;22.85;13.80;;;;;;;;;;5071552;28;20074;-66
2023/04/08 08:31:14;;;;;;;21.77;14.20;;;;;;;;;;5073053;28;20104;-66
2023/04/08 08:33:39;;;;;;;15.77;13.25;;;;;;;;;;5060655;28;20828;-66
2023/04/08 08:36:06;;;;;;;25.25;16.60;;;;;;;;;;5066560;28;20020;-66
2023/04/08 08:38:31;;;;;;;22.52;15.70;;;;;;;;;;5068344;28;20053;-66
2023/04/08 08:40:57;;;;;;;25.85;16.83;;;;;;;;;;5061873;28;20052;-64
2023/04/08 08:43:23;;;;;;;19.80;15.88;;;;;;;;;;5067417;28;20040;-66
2023/04/08 08:45:48;;;;;;;21.75;15.35;;;;;;;;;;5061808;28;20032;-66
2023/04/08 08:48:14;;;;;;;18.40;14.70;;;;;;;;;;5063571;28;20134;-66
2023/04/08 08:50:39;;;;;;;17.95;14.45;;;;;;;;;;5049432;28;20025;-66
2023/04/08 08:53:04;;;;;;;24.05;15.18;;;;;;;;;;5057510;28;20032;-65
2023/04/08 08:55:33;;;;;;;25.17;14.05;;;;;;;;;;5079299;28;20133;-67
2023/04/08 08:58:00;;;;;;;17.05;14.05;;;;;;;;;;5069273;28;20031;-66
2023/04/08 09:00:34;;;;;;;22.67;14.52;;;;;;;;;;5068129;28;20021;-66
2023/04/08 09:03:15;;;;;;;18.83;14.40;;;;;;;;;;5063376;28;20082;-66
2023/04/08 09:05:50;;;;;;;25.38;14.95;;;;;;;;;;5061774;28;20050;-66
2023/04/08 09:08:25;;;;;;;19.50;14.10;;;;;;;;;;5061684;28;20036;-66
2023/04/08 09:10:50;;;;;;;19.45;14.25;;;;;;;;;;5074035;28;20252;-66
2023/04/08 09:13:15;;;;;;;19.23;13.65;;;;;;;;;;5061227;28;20024;-64
2023/04/08 09:16:00;;;;;;;16.92;12.98;;;;;;;;;;5057258;28;20017;-66
2023/04/08 09:18:26;;;;;;;20.45;13.00;;;;;;;;;;5051158;28;20039;-67
2023/04/08 09:20:51;;;;;;;18.08;13.18;;;;;;;;;;5051528;28;20024;-66
2023/04/08 09:23:17;;;;;;;17.65;14.20;;;;;;;;;;5059738;28;20766;-66
2023/04/08 09:25:42;;;;;;;21.08;14.18;;;;;;;;;;5072516;28;20039;-67
2023/04/08 09:28:17;;;;;;;23.63;15.45;;;;;;;;;;5064458;28;20024;-67
2023/04/08 09:30:43;;;;;;;21.65;15.43;;;;;;;;;;5064008;28;20585;-67
2023/04/08 09:33:08;;;;;;;24.08;15.30;;;;;;;;;;5049773;28;20025;-66
2023/04/08 09:35:33;;;;;;;22.80;15.68;;;;;;;;;;5046399;28;20479;-66
2023/04/08 09:37:59;;;;;;;19.92;16.08;;;;;;;;;;5050758;28;20032;-69
2023/04/08 09:40:26;;;;;;;24.05;17.10;;;;;;;;;;5057614;28;20085;-69
2023/04/08 09:42:53;;;;;;;27.45;16.98;;;;;;;;;;5054246;28;20580;-66
2023/04/08 09:45:18;;;;;;;30.02;16.38;;;;;;;;;;5047641;28;20040;-65
2023/04/08 09:47:56;;;;;;;26.73;16.63;;;;;;;;;;5041260;28;20066;-68
2023/04/08 09:50:27;;;;;;;16.85;14.27;;;;;;;;;;5041947;28;20025;-68
2023/04/08 09:52:55;;;;;;;19.83;14.98;;;;;;;;;;5053860;28;20036;-67
2023/04/08 09:55:24;;;;;;;25.00;16.90;;;;;;;;;;5049713;28;20025;-68
2023/04/08 09:57:49;;;;;;;21.52;16.45;;;;;;;;;;5067647;28;20039;-68
2023/04/08 10:00:16;;;;;;;22.20;15.93;;;;;;;;;;5053483;28;20039;-67
2023/04/08 10:02:55;;;;;;;19.83;15.80;;;;;;;;;;5057739;28;20367;-68
2023/04/08 10:05:21;;;;;;;22.00;17.15;;;;;;;;;;5051878;28;20135;-67
2023/04/08 10:07:47;;;;;;;24.90;15.43;;;;;;;;;;5063314;28;20177;-67
2023/04/08 10:10:15;;;;;;;21.42;16.05;;;;;;;;;;5053189;28;20056;-67
2023/04/08 10:12:40;;;;;;;21.30;15.27;;;;;;;;;;5043804;28;20123;-68
2023/04/08 10:15:22;;;;;;;22.67;15.32;;;;;;;;;;5049080;28;20023;-67
2023/04/08 10:17:47;;;;;;;21.67;16.63;;;;;;;;;;5055928;28;20024;-67
2023/04/08 10:20:35;;;;;;;19.88;15.98;;;;;;;;;;5054602;28;20074;-67
2023/04/08 10:23:01;;;;;;;19.70;15.23;;;;;;;;;;5069546;28;20032;-68
2023/04/08 10:25:32;;;;;;;17.27;14.45;;;;;;;;;;5069929;28;20054;-67
2023/04/08 10:28:17;;;;;;;20.42;15.45;;;;;;;;;;5059684;28;20911;-67
2023/04/08 10:30:44;;;;;;;22.38;16.02;;;;;;;;;;5045607;28;20059;-68
2023/04/08 10:33:12;;;;;;;22.65;17.23;;;;;;;;;;5059140;28;20035;-69
2023/04/08 10:35:42;;;;;;;18.10;14.07;;;;;;;;;;5056392;28;20473;-67
2023/04/08 10:38:07;;;;;;;22.17;14.90;;;;;;;;;;5065741;28;20021;-67
2023/04/08 10:40:37;;;;;;;21.25;15.65;;;;;;;;;;5064695;28;20120;-67
2023/04/08 10:43:04;;;;;;;19.98;16.08;;;;;;;;;;5062595;28;20132;-66
2023/04/08 10:45:29;;;;;;;23.52;17.73;;;;;;;;;;5054871;28;20039;-66
2023/04/08 10:47:54;;;;;;;18.55;16.00;;;;;;;;;;5058407;28;20024;-66
2023/04/08 10:50:22;;;;;;;18.50;14.75;;;;;;;;;;5068711;28;20119;-67
2023/04/08 10:52:51;;;;;;;17.58;13.45;;;;;;;;;;5066153;28;20450;-66
2023/04/08 10:55:23;;;;;;;15.68;13.30;;;;;;;;;;5060159;28;20040;-68
2023/04/08 10:57:52;;;;;;;24.48;13.63;;;;;;;;;;5069884;28;20020;-68
2023/04/08 11:00:18;;;;;;;19.30;14.55;;;;;;;;;;5061239;28;20102;-67
2023/04/08 11:02:43;;;;;;;23.05;15.07;;;;;;;;;;5057528;28;20039;-68
2023/04/08 11:05:09;;;;;;;25.45;15.45;;;;;;;;;;5048909;28;20068;-68
2023/04/08 11:07:38;;;;;;;19.20;14.18;;;;;;;;;;5060081;28;20035;-67
2023/04/08 11:10:04;;;;;;;17.83;13.70;;;;;;;;;;5054148;28;20036;-66
2023/04/08 11:12:31;;;;;;;16.33;12.95;;;;;;;;;;5066610;28;20860;-66
2023/04/08 11:14:56;;;;;;;16.48;12.52;;;;;;;;;;5067618;28;20146;-66
2023/04/08 11:17:21;;;;;;;18.60;12.73;;;;;;;;;;5058037;28;20032;-66
2023/04/08 11:19:47;;;;;;;15.23;12.55;;;;;;;;;;5064083;28;21530;-67
2023/04/08 11:22:12;;;;;;;18.08;13.45;;;;;;;;;;5059217;28;20027;-66
2023/04/08 11:24:38;;;;;;;14.82;12.35;;;;;;;;;;5054982;28;20036;-69
2023/04/08 11:27:05;;;;;;;17.05;12.88;;;;;;;;;;5073043;28;20136;-68
2023/04/08 11:29:31;;;;;;;20.98;12.60;;;;;;;;;;5072380;28;20073;-68
2023/04/08 11:31:56;;;;;;;18.13;14.25;;;;;;;;;;5060716;28;20091;-68
2023/04/08 11:34:23;;;;;;;21.45;13.85;;;;;;;;;;5052557;28;20848;-67
2023/04/08 11:36:49;;;;;;;18.20;13.38;;;;;;;;;;5063049;28;20040;-67
2023/04/08 11:39:14;;;;;;;18.23;14.27;;;;;;;;;;5077393;28;20071;-66
2023/04/08 11:41:39;;;;;;;14.98;11.82;;;;;;;;;;5079291;28;20059;-65
2023/04/08 11:44:08;;;;;;;16.43;12.50;;;;;;;;;;5080636;28;20024;-66
2023/04/08 11:46:34;;;;;;;14.40;12.43;;;;;;;;;;5073005;28;20313;-66
2023/04/08 11:49:06;;;;;;;16.13;12.38;;;;;;;;;;5083932;28;20024;-66
2023/04/08 11:51:33;;;;;;;19.58;13.40;;;;;;;;;;5079809;28;20497;-66
2023/04/08 11:53:59;;;;;;;17.08;12.90;;;;;;;;;;5076034;28;20033;-65
2023/04/08 11:56:24;;;;;;;16.02;12.55;;;;;;;;;;5072593;28;20051;-65
2023/04/08 11:58:50;;;;;;;14.55;12.50;;;;;;;;;;5077699;28;20043;-65
2023/04/08 12:01:15;;;;;;;17.00;13.32;;;;;;;;;;5073674;28;20036;-66
2023/04/08 12:04:00;;;;;;;14.77;12.63;;;;;;;;;;5077772;28;20478;-66
2023/04/08 12:06:26;;;;;;;;;;;;;;;;;;5070503;28;20060;-66
2023/04/08 12:08:51;;;;;;;15.70;11.00;;;;;;;;;;5075329;28;19923;-65
2023/04/08 12:11:16;;;;;;;16.58;11.27;;;;;;;;;;5071263;28;20033;-66
2023/04/08 12:13:42;;;;;;;24.00;12.88;;;;;;;;;;5079261;28;20056;-65
2023/04/08 12:16:07;;;;;;;15.37;11.53;;;;;;;;;;5074150;28;20107;-65
2023/04/08 12:18:32;;;;;;;14.63;11.57;;;;;;;;;;5073298;28;20271;-65
2023/04/08 12:20:57;;;;;;;13.83;11.63;;;;;;;;;;5072717;28;20044;-67
2023/04/08 12:23:23;;;;;;;13.35;10.82;;;;;;;;;;5072354;28;20305;-66
2023/04/08 12:25:48;;;;;;;18.50;11.23;;;;;;;;;;5074907;28;20085;-66
2023/04/08 12:28:13;;;;;;;15.40;10.45;;;;;;;;;;5078562;28;20279;-65
2023/04/08 12:30:39;;;;;;;10.93;9.30;;;;;;;;;;5070698;28;20103;-66
2023/04/08 12:33:04;;;;;;;13.13;11.10;;;;;;;;;;5066051;28;20037;-66
2023/04/08 12:35:30;;;;;;;15.15;12.13;;;;;;;;;;5071241;28;20753;-66
2023/04/08 12:37:55;;;;;;;22.13;10.75;;;;;;;;;;5076398;28;20028;-66
2023/04/08 12:40:20;;;;;;;16.88;12.15;;;;;;;;;;5078950;28;20035;-66
2023/04/08 12:42:47;;;;;;;18.67;12.10;;;;;;;;;;5077142;28;20020;-65
2023/04/08 12:45:12;;;;;;;14.82;12.10;;;;;;;;;;5071383;28;20040;-65
2023/04/08 12:47:37;;;;;;;14.45;12.05;;;;;;;;;;5068659;28;20093;-66
2023/04/08 12:50:03;;;;;;;16.40;13.48;;;;;;;;;;5057005;28;20289;-65
2023/04/08 12:52:28;;;;;;;15.18;12.30;;;;;;;;;;5056627;28;20108;-65
2023/04/08 12:54:54;;;;;;;14.80;13.20;;;;;;;;;;5058193;28;20033;-66
2023/04/08 12:57:19;;;;;;;17.02;13.38;;;;;;;;;;5067745;28;20262;-66
2023/04/08 12:59:44;;;;;;;19.05;13.60;;;;;;;;;;5069906;28;20135;-66
2023/04/08 13:02:09;;;;;;;18.65;14.30;;;;;;;;;;5073012;28;20027;-65
2023/04/08 13:04:35;;;;;;;16.33;13.60;;;;;;;;;;5064016;28;20039;-68
2023/04/08 13:07:00;;;;;;;18.07;13.60;;;;;;;;;;5063368;28;20230;-66
2023/04/08 13:09:25;;;;;;;12.53;11.23;;;;;;;;;;5063992;28;20274;-66
2023/04/08 13:11:50;;;;;;;16.77;12.70;;;;;;;;;;5066329;28;20304;-64
2023/04/08 13:14:16;;;;;;;15.95;12.65;;;;;;;;;;5071573;28;20393;-65
2023/04/08 13:16:41;;;;;;;19.02;13.82;;;;;;;;;;5057504;28;20059;-65
2023/04/08 13:19:06;;;;;;;22.23;14.73;;;;;;;;;;5080694;28;20127;-64
2023/04/08 13:21:31;;;;;;;18.17;14.87;;;;;;;;;;5059464;28;20278;-66
2023/04/08 13:23:57;;;;;;;19.77;14.93;;;;;;;;;;5055250;28;20324;-64
2023/04/08 13:26:23;;;;;;;23.07;14.27;;;;;;;;;;5074234;28;20298;-64
2023/04/08 13:28:48;;;;;;;18.05;13.70;;;;;;;;;;5064388;28;20275;-65
2023/04/08 13:31:13;;;;;;;15.43;11.98;;;;;;;;;;5081281;28;20081;-67
2023/04/08 13:33:38;;;;;;;17.50;11.57;;;;;;;;;;5076977;28;20042;-66
2023/04/08 13:36:04;;;;;;;16.63;12.23;;;;;;;;;;5065373;28;20372;-66
2023/04/08 13:38:29;;;;;;;13.93;11.25;;;;;;;;;;5077514;28;20386;-66
2023/04/08 13:40:54;;;;;;;13.63;10.20;;;;;;;;;;5067386;28;20035;-66
2023/04/08 13:43:20;;;;;;;15.65;12.18;;;;;;;;;;5073776;28;20044;-65
2023/04/08 13:45:45;;;;;;;13.67;11.53;;;;;;;;;;5065743;28;20033;-64
2023/04/08 13:48:10;;;;;;;13.55;11.20;;;;;;;;;;5078096;28;20296;-64
2023/04/08 13:50:36;;;;;;;16.38;11.15;;;;;;;;;;5068262;28;20098;-63
2023/04/08 13:53:01;;;;;;;15.88;10.60;;;;;;;;;;5082917;28;20757;-66
2023/04/08 13:55:26;;;;;;;13.35;10.18;;;;;;;;;;5082455;28;20028;-64
2023/04/08 13:57:52;;;;;;;13.07;10.00;;;;;;;;;;5076938;28;20748;-67
2023/04/08 14:00:17;;;;;;;17.02;10.48;;;;;;;;;;5068698;28;20032;-66
2023/04/08 14:02:42;;;;;;;12.30;9.60;;;;;;;;;;5066021;28;20099;-66
2023/04/08 14:05:07;;;;;;;12.05;9.82;;;;;;;;;;5064483;28;20063;-69
2023/04/08 14:07:33;;;;;;;14.05;9.32;;;;;;;;;;5063647;28;20473;-67
2023/04/08 14:09:58;;;;;;;14.68;9.38;;;;;;;;;;5073442;28;20117;-65
2023/04/08 14:12:23;;;;;;;12.52;9.50;;;;;;;;;;5072594;28;20414;-65